Time;durP1;ratioP1;P1;durP2;ratioP2;P2;SDS_P1;SDS_P2;PMS_P1;PMS_P2;Temp;Humidity;BMP_temperature;BMP_pressure;BME280_temperature;BME280_humidity;BME280_pressure;Samples;Min_cycle;Max_cycle;Signal;HPM_P1;HPM_P2
2022/11/27 00:00:21;;;;;;;13.93;7.70;;;5.70;99.90;;;;;;8371746;28;20327;-80
2022/11/27 00:04:22;;;;;;;14.93;7.10;;;5.70;99.90;;;;;;8371726;28;20185;-80
2022/11/27 00:08:26;;;;;;;15.57;6.90;;;5.70;99.90;;;;;;8372234;28;20196;-80
2022/11/27 00:12:27;;;;;;;13.00;7.20;;;5.80;99.90;;;;;;8373400;28;20575;-80
2022/11/27 00:16:28;;;;;;;10.73;6.83;;;5.70;99.90;;;;;;8371813;28;20476;-80
2022/11/27 00:20:29;;;;;;;17.93;7.43;;;5.70;99.90;;;;;;8372027;28;20395;-80
2022/11/27 00:24:30;;;;;;;14.40;7.77;;;5.70;99.90;;;;;;8373303;28;20209;-80
2022/11/27 00:28:30;;;;;;;13.10;7.23;;;5.70;99.90;;;;;;8374814;28;20204;-79
2022/11/27 00:32:31;;;;;;;12.10;7.27;;;5.70;99.90;;;;;;8376524;28;20541;-79
2022/11/27 00:36:33;;;;;;;12.17;7.13;;;5.70;99.90;;;;;;8372249;28;20188;-79
2022/11/27 00:40:34;;;;;;;21.27;7.77;;;5.80;99.90;;;;;;8376685;28;20219;-79
2022/11/27 00:44:35;;;;;;;19.17;9.20;;;5.70;99.90;;;;;;8377982;28;20186;-78
2022/11/27 00:48:36;;;;;;;11.83;7.90;;;5.70;99.90;;;;;;8375364;28;20185;-80
2022/11/27 00:52:37;;;;;;;18.27;8.93;;;5.70;99.90;;;;;;8370965;28;20184;-80
2022/11/27 00:56:39;;;;;;;14.70;7.60;;;5.70;99.90;;;;;;8372850;28;20198;-80
2022/11/27 01:00:39;;;;;;;15.23;7.50;;;5.70;99.90;;;;;;8389857;28;20241;-80
2022/11/27 01:04:40;;;;;;;13.73;7.57;;;5.70;99.90;;;;;;8368982;28;20181;-80
2022/11/27 01:08:42;;;;;;;11.27;6.63;;;5.70;99.90;;;;;;8371358;28;20185;-80
2022/11/27 01:12:42;;;;;;;14.57;8.13;;;5.80;99.90;;;;;;8371833;28;20199;-80
2022/11/27 01:16:44;;;;;;;17.10;8.77;;;5.80;99.90;;;;;;8369005;28;20185;-80
2022/11/27 01:20:45;;;;;;;10.17;6.70;;;5.80;99.90;;;;;;8371471;28;20481;-79
2022/11/27 01:24:46;;;;;;;10.57;7.00;;;5.80;99.90;;;;;;8370515;28;20570;-80
2022/11/27 01:28:50;;;;;;;11.17;6.80;;;5.80;99.90;;;;;;8371113;28;20205;-80
2022/11/27 01:32:51;;;;;;;11.53;6.57;;;5.80;99.90;;;;;;8373522;28;20178;-80
2022/11/27 01:36:51;;;;;;;10.90;6.20;;;5.80;99.90;;;;;;8367717;28;20185;-80
2022/11/27 01:41:01;;;;;;;12.50;7.00;;;5.90;99.90;;;;;;8384747;28;20213;-79
2022/11/27 01:45:01;;;;;;;9.87;6.50;;;5.90;99.90;;;;;;8367584;28;20307;-79
2022/11/27 01:49:08;;;;;;;10.03;6.27;;;5.90;99.90;;;;;;8371146;28;20409;-80
2022/11/27 01:53:15;;;;;;;9.50;6.07;;;5.80;99.90;;;;;;8370005;28;20192;-80
2022/11/27 01:57:38;;;;;;;14.43;7.53;;;5.80;99.90;;;;;;8367247;28;20210;-80
2022/11/27 02:01:39;;;;;;;16.60;8.43;;;5.80;99.90;;;;;;8372925;28;20178;-79
2022/11/27 02:05:40;;;;;;;13.07;8.77;;;5.80;99.90;;;;;;8368858;28;20193;-79
2022/11/27 02:09:40;;;;;;;16.57;8.83;;;5.80;99.90;;;;;;8368375;28;20186;-79
2022/11/27 02:14:33;;;;;;;14.93;9.03;;;5.80;99.90;;;;;;8368887;28;20189;-79
2022/11/27 02:18:46;;;;;;;15.13;8.37;;;5.80;99.90;;;;;;8369463;28;20228;-79
2022/11/27 02:23:05;;;;;;;15.10;8.73;;;5.80;99.90;;;;;;8371520;28;20183;-79
2022/11/27 02:27:15;;;;;;;12.40;8.37;;;5.80;99.90;;;;;;8372920;28;20185;-79
2022/11/27 02:31:38;;;;;;;17.83;9.43;;;5.80;99.90;;;;;;8370782;28;20209;-79
2022/11/27 02:35:54;;;;;;;15.23;9.70;;;5.80;99.90;;;;;;8369735;28;20270;-79
2022/11/27 02:40:08;;;;;;;19.63;9.83;;;5.70;99.90;;;;;;8370787;28;20248;-79
2022/11/27 02:44:10;;;;;;;19.00;11.07;;;5.70;99.90;;;;;;8368438;28;20216;-79
2022/11/27 02:48:13;;;;;;;20.30;10.67;;;5.80;99.90;;;;;;8371422;28;20186;-79
2022/11/27 02:52:17;;;;;;;18.67;10.93;;;5.70;99.90;;;;;;8366364;28;20190;-79
2022/11/27 02:56:21;;;;;;;16.90;11.33;;;5.70;99.90;;;;;;8362374;28;20197;-80
2022/11/27 03:00:22;;;;;;;20.47;12.17;;;5.70;99.90;;;;;;8368522;28;20220;-79
2022/11/27 03:04:33;;;;;;;19.57;12.63;;;5.70;99.90;;;;;;8378643;28;20189;-80
2022/11/27 03:08:55;;;;;;;30.83;15.43;;;5.70;99.90;;;;;;8366348;28;20196;-79
2022/11/27 03:12:57;;;;;;;33.27;15.63;;;5.60;99.90;;;;;;8371978;28;20196;-79
2022/11/27 03:17:21;;;;;;;23.33;14.60;;;5.60;99.90;;;;;;8360720;28;20224;-79
2022/11/27 03:21:34;;;;;;;23.87;13.70;;;5.50;99.90;;;;;;8373537;28;20181;-79
2022/11/27 03:25:35;;;;;;;22.10;13.07;;;5.50;99.90;;;;;;8370235;28;20184;-79
2022/11/27 03:29:50;;;;;;;20.47;12.40;;;5.50;99.90;;;;;;8372153;28;20245;-79
2022/11/27 03:33:53;;;;;;;18.60;12.03;;;5.60;99.90;;;;;;8369843;28;20190;-79
2022/11/27 03:37:54;;;;;;;16.93;11.13;;;5.60;99.90;;;;;;8386683;28;20209;-79
2022/11/27 03:42:25;;;;;;;19.00;12.40;;;5.60;99.90;;;;;;8374960;28;20205;-79
2022/11/27 03:46:51;;;;;;;19.23;11.90;;;5.60;99.90;;;;;;8375603;28;20189;-79
2022/11/27 03:51:07;;;;;;;19.07;12.23;;;5.60;99.90;;;;;;8372551;28;20216;-79
2022/11/27 03:55:14;;;;;;;21.73;12.57;;;5.60;99.90;;;;;;8373872;28;20190;-79
2022/11/27 03:59:36;;;;;;;23.03;12.93;;;5.60;99.90;;;;;;8386648;28;20312;-79
2022/11/27 04:03:37;;;;;;;16.50;11.27;;;5.60;99.90;;;;;;8369989;28;20186;-79
2022/11/27 04:07:39;;;;;;;16.43;11.67;;;5.50;99.90;;;;;;8372736;28;20193;-79
2022/11/27 04:11:39;;;;;;;20.37;12.00;;;5.50;99.90;;;;;;8375708;28;20185;-79
2022/11/27 04:15:40;;;;;;;17.00;10.80;;;5.50;99.90;;;;;;8378259;28;20188;-79
2022/11/27 04:19:41;;;;;;;17.13;11.43;;;5.40;99.90;;;;;;8373946;28;20209;-79
2022/11/27 04:23:43;;;;;;;15.27;10.90;;;5.30;99.90;;;;;;8369188;28;20189;-79
2022/11/27 04:27:43;;;;;;;19.33;11.70;;;5.20;99.90;;;;;;8372322;28;20197;-79
2022/11/27 04:31:44;;;;;;;24.53;13.13;;;5.20;99.90;;;;;;8369286;28;20205;-79
2022/11/27 04:35:45;;;;;;;22.27;13.87;;;5.20;99.90;;;;;;8369653;28;20184;-79
2022/11/27 04:39:46;;;;;;;19.33;12.83;;;5.20;99.90;;;;;;8377782;28;20296;-79
2022/11/27 04:43:47;;;;;;;19.27;11.83;;;5.20;99.90;;;;;;8373069;28;20225;-79
2022/11/27 04:47:47;;;;;;;21.77;12.53;;;5.30;99.90;;;;;;8366563;28;20189;-79
2022/11/27 04:51:48;;;;;;;18.57;12.47;;;5.30;99.90;;;;;;8369239;28;20192;-78
2022/11/27 04:55:51;;;;;;;24.77;13.60;;;5.40;99.90;;;;;;8369632;28;20204;-79
2022/11/27 04:59:52;;;;;;;23.90;14.20;;;5.50;99.90;;;;;;8377377;28;20220;-79
2022/11/27 05:03:52;;;;;;;20.70;12.40;;;5.50;99.90;;;;;;8373567;28;20191;-79
2022/11/27 05:07:53;;;;;;;18.87;13.07;;;5.50;99.90;;;;;;8372453;28;20253;-79
2022/11/27 05:11:54;;;;;;;18.83;12.77;;;5.50;99.90;;;;;;8364524;28;20197;-79
2022/11/27 05:15:56;;;;;;;17.97;11.83;;;5.50;99.90;;;;;;8375489;28;20215;-79
2022/11/27 05:19:56;;;;;;;19.00;11.23;;;5.50;99.90;;;;;;8369407;28;20236;-79
2022/11/27 05:23:57;;;;;;;18.97;11.47;;;5.40;99.90;;;;;;8375169;28;20181;-79
2022/11/27 05:27:58;;;;;;;15.33;10.93;;;5.40;99.90;;;;;;8371215;28;20264;-79
2022/11/27 05:31:59;;;;;;;18.37;12.13;;;5.40;99.90;;;;;;8371525;28;20270;-79
2022/11/27 05:35:59;;;;;;;18.33;11.47;;;5.30;99.90;;;;;;8370799;28;20188;-79
2022/11/27 05:40:00;;;;;;;20.00;11.37;;;5.30;99.90;;;;;;8377464;28;20209;-79
2022/11/27 05:44:01;;;;;;;18.50;11.80;;;5.30;99.90;;;;;;8369429;28;20276;-79
2022/11/27 05:48:02;;;;;;;21.80;12.77;;;5.30;99.90;;;;;;8374064;28;20199;-79
2022/11/27 05:52:03;;;;;;;18.10;12.40;;;5.20;99.90;;;;;;8372405;28;20193;-79
2022/11/27 05:56:08;;;;;;;22.97;13.07;;;5.20;99.90;;;;;;8374037;28;20209;-80
2022/11/27 06:00:09;;;;;;;29.43;15.43;;;5.20;99.90;;;;;;8373720;28;20215;-79
2022/11/27 06:04:10;;;;;;;23.70;14.40;;;5.20;99.90;;;;;;8372159;28;20247;-80
2022/11/27 06:08:11;;;;;;;29.70;15.40;;;5.10;99.90;;;;;;8366347;28;20280;-80
2022/11/27 06:12:11;;;;;;;25.73;14.50;;;5.10;99.90;;;;;;8369619;28;20216;-80
2022/11/27 06:16:23;;;;;;;26.60;15.53;;;5.10;99.90;;;;;;8370241;28;20185;-80
2022/11/27 06:20:24;;;;;;;24.60;14.57;;;5.10;99.90;;;;;;8368084;28;20275;-80
2022/11/27 06:24:25;;;;;;;18.37;12.50;;;5.10;99.90;;;;;;8372190;28;20181;-80
2022/11/27 06:28:25;;;;;;;20.23;13.20;;;5.20;99.90;;;;;;8367712;28;20186;-80
2022/11/27 06:32:26;;;;;;;22.10;12.87;;;5.20;99.90;;;;;;8372504;28;20474;-80
2022/11/27 06:36:33;;;;;;;23.53;13.73;;;5.30;99.90;;;;;;8368536;28;20208;-80
2022/11/27 06:40:33;;;;;;;27.60;14.03;;;5.30;99.90;;;;;;8373985;28;20208;-79
2022/11/27 06:44:34;;;;;;;22.40;13.10;;;5.30;99.90;;;;;;8375469;28;20276;-80
2022/11/27 06:48:35;;;;;;;23.23;13.33;;;5.40;99.90;;;;;;8371606;28;20189;-79
2022/11/27 06:52:36;;;;;;;20.30;13.30;;;5.50;99.90;;;;;;8367239;28;20188;-80
2022/11/27 06:56:36;;;;;;;22.37;13.47;;;5.50;99.90;;;;;;8371401;28;20209;-80
2022/11/27 07:00:37;;;;;;;23.70;13.50;;;5.60;99.90;;;;;;8368106;28;20209;-80
2022/11/27 07:04:38;;;;;;;18.23;13.00;;;5.60;99.90;;;;;;8370139;28;20192;-80
2022/11/27 07:08:40;;;;;;;22.37;13.80;;;5.70;99.90;;;;;;8373460;28;20260;-80
2022/11/27 07:12:41;;;;;;;19.87;12.97;;;5.80;99.90;;;;;;8377096;28;20182;-80
2022/11/27 07:16:42;;;;;;;21.23;12.47;;;5.80;99.90;;;;;;8381399;28;20228;-80
2022/11/27 07:20:49;;;;;;;19.80;12.03;;;5.80;99.90;;;;;;8372382;28;20342;-80
2022/11/27 07:24:50;;;;;;;19.77;12.73;;;5.90;99.90;;;;;;8375593;28;20201;-80
2022/11/27 07:28:51;;;;;;;16.13;10.80;;;5.90;99.90;;;;;;8370641;28;20285;-80
2022/11/27 07:32:52;;;;;;;15.70;11.37;;;5.90;99.90;;;;;;8370669;28;20203;-80
2022/11/27 07:36:53;;;;;;;17.43;11.33;;;6.00;99.90;;;;;;8381179;28;20189;-81
2022/11/27 07:40:54;;;;;;;21.23;12.73;;;6.00;99.90;;;;;;8376782;28;20197;-79
2022/11/27 07:44:55;;;;;;;25.03;14.33;;;6.10;99.90;;;;;;8376170;28;20188;-80
2022/11/27 07:48:57;;;;;;;28.27;14.97;;;6.10;99.90;;;;;;8371798;28;20474;-78
2022/11/27 07:52:58;;;;;;;22.13;13.97;;;6.20;99.90;;;;;;8379564;28;20192;-80
2022/11/27 07:56:59;;;;;;;27.17;14.47;;;6.10;99.90;;;;;;8369167;28;20241;-79
2022/11/27 08:00:59;;;;;;;24.27;14.80;;;6.20;99.90;;;;;;8373993;28;20177;-79
2022/11/27 08:05:00;;;;;;;24.90;14.37;;;6.20;99.90;;;;;;8373879;28;20185;-78
2022/11/27 08:09:02;;;;;;;21.60;13.60;;;6.10;99.90;;;;;;8365428;28;20193;-79
2022/11/27 08:13:03;;;;;;;24.93;14.37;;;6.10;99.90;;;;;;8377759;28;20197;-79
2022/11/27 08:17:04;;;;;;;23.47;12.87;;;6.10;99.90;;;;;;8372997;28;20185;-79
2022/11/27 08:21:05;;;;;;;22.20;12.87;;;6.20;99.90;;;;;;8368140;28;20185;-79
2022/11/27 08:25:07;;;;;;;18.40;12.37;;;6.20;99.90;;;;;;8380104;28;20186;-79
2022/11/27 08:29:10;;;;;;;19.17;11.33;;;6.30;99.90;;;;;;8373466;28;20292;-79
2022/11/27 08:33:12;;;;;;;17.00;11.47;;;6.30;99.90;;;;;;8371120;28;20189;-79
2022/11/27 08:37:13;;;;;;;15.80;11.07;;;6.30;99.90;;;;;;8374375;28;20319;-79
2022/11/27 08:41:14;;;;;;;16.87;10.73;;;6.30;99.90;;;;;;8371191;28;20189;-79
2022/11/27 08:45:14;;;;;;;15.77;11.33;;;6.40;99.90;;;;;;8385996;28;20208;-79
2022/11/27 08:49:15;;;;;;;17.07;10.73;;;6.50;99.90;;;;;;8372898;28;20212;-80
2022/11/27 08:53:17;;;;;;;15.50;9.77;;;6.70;99.90;;;;;;8377359;28;20277;-80
2022/11/27 08:57:17;;;;;;;15.90;10.07;;;7.00;99.90;;;;;;8368556;28;20210;-80
2022/11/27 09:01:30;;;;;;;20.57;11.57;;;7.20;99.90;;;;;;8367810;28;20239;-80
2022/11/27 09:05:31;;;;;;;23.07;14.47;;;7.40;99.90;;;;;;8374813;28;20181;-80
2022/11/27 09:09:32;;;;;;;19.83;11.53;;;7.60;99.90;;;;;;8371793;28;20506;-80
2022/11/27 09:13:36;;;;;;;18.00;11.80;;;7.70;99.90;;;;;;8378189;28;20199;-80
2022/11/27 09:17:38;;;;;;;23.43;13.77;;;7.90;99.90;;;;;;8372770;28;20205;-80
2022/11/27 09:21:39;;;;;;;17.60;9.47;;;8.00;99.90;;;;;;8372297;28;20183;-80
2022/11/27 09:25:39;;;;;;;13.80;6.60;;;8.20;99.90;;;;;;8372978;28;20182;-80
2022/11/27 09:29:40;;;;;;;12.13;6.93;;;8.30;99.90;;;;;;8371896;28;20194;-79
2022/11/27 09:33:42;;;;;;;10.13;5.60;;;8.50;99.90;;;;;;8372202;28;20198;-80
2022/11/27 09:37:42;;;;;;;10.00;5.57;;;8.60;99.90;;;;;;8374071;28;20244;-80
2022/11/27 09:41:53;;;;;;;10.93;6.60;;;8.90;99.90;;;;;;8377002;28;20216;-80
2022/11/27 09:46:05;;;;;;;9.13;6.43;;;9.10;99.90;;;;;;8383520;28;20321;-80
2022/11/27 09:50:13;;;;;;;13.57;6.17;;;9.40;99.90;;;;;;8387894;28;20237;-80
2022/11/27 09:54:17;;;;;;;8.40;5.73;;;9.60;99.90;;;;;;8370665;28;20272;-78
2022/11/27 09:58:21;;;;;;;10.73;5.37;;;9.80;99.90;;;;;;8368040;28;20202;-78
2022/11/27 10:02:29;;;;;;;10.60;5.20;;;9.90;99.90;;;;;;8371441;28;20211;-80
2022/11/27 10:06:52;;;;;;;9.93;5.93;;;10.00;99.90;;;;;;8373166;28;20265;-79
2022/11/27 10:11:22;;;;;;;19.10;12.57;;;10.10;99.90;;;;;;8369702;28;20188;-80
2022/11/27 10:15:55;;;;;;;21.43;12.50;;;10.10;99.90;;;;;;8366865;28;20182;-80
2022/11/27 10:20:27;;;;;;;19.37;12.07;;;10.10;99.90;;;;;;8376592;28;20296;-81
2022/11/27 10:24:40;;;;;;;18.53;12.63;;;10.00;99.90;;;;;;8381306;28;20282;-80
2022/11/27 10:29:09;;;;;;;17.17;11.83;;;9.90;99.90;;;;;;8375545;28;20196;-81
2022/11/27 10:33:17;;;;;;;13.97;9.73;;;9.80;99.90;;;;;;8368476;28;20220;-80
2022/11/27 10:37:26;;;;;;;16.93;10.17;;;9.70;99.90;;;;;;8377679;28;20209;-80
2022/11/27 10:41:58;;;;;;;13.17;8.00;;;9.70;99.90;;;;;;8373392;28;20174;-81
2022/11/27 10:46:24;;;;;;;12.70;6.90;;;9.70;99.90;;;;;;8373621;28;20177;-80
2022/11/27 10:50:25;;;;;;;10.60;6.57;;;9.80;99.90;;;;;;8374194;28;20178;-79
2022/11/27 10:54:32;;;;;;;10.50;6.47;;;9.80;99.90;;;;;;8378952;28;20344;-79
2022/11/27 10:58:49;;;;;;;12.27;6.40;;;9.90;99.90;;;;;;8372843;28;20231;-80
2022/11/27 11:03:00;;;;;;;8.40;5.90;;;9.90;99.90;;;;;;8372319;28;20182;-80
2022/11/27 11:07:01;;;;;;;9.77;5.30;;;9.90;99.90;;;;;;8378463;28;20188;-80
2022/11/27 11:11:06;;;;;;;9.90;5.17;;;9.80;99.90;;;;;;8377311;28;20185;-79
2022/11/27 11:15:11;;;;;;;8.73;6.30;;;9.70;99.90;;;;;;8377345;28;20208;-79
2022/11/27 11:19:28;;;;;;;9.13;5.53;;;9.70;99.90;;;;;;8378809;28;20206;-80
2022/11/27 11:23:39;;;;;;;10.63;5.90;;;9.70;99.90;;;;;;8372454;28;20536;-80
2022/11/27 11:27:42;;;;;;;9.37;5.97;;;9.70;99.90;;;;;;8383173;28;20186;-80
2022/11/27 11:31:44;;;;;;;9.30;5.77;;;9.70;99.90;;;;;;8372798;28;20233;-81
2022/11/27 11:35:53;;;;;;;11.50;5.93;;;9.80;99.90;;;;;;8391867;28;20204;-81
2022/11/27 11:40:00;;;;;;;5.97;4.57;;;9.70;99.90;;;;;;8375403;28;20225;-81
2022/11/27 11:44:02;;;;;;;10.57;5.73;;;9.80;99.90;;;;;;8379217;28;20192;-80
2022/11/27 11:48:26;;;;;;;8.53;5.43;;;9.70;99.90;;;;;;8369780;28;20280;-81
2022/11/27 11:52:45;;;;;;;9.90;6.17;;;9.70;99.90;;;;;;8371121;28;20250;-81
2022/11/27 11:56:51;;;;;;;11.60;5.87;;;9.80;99.90;;;;;;8368542;28;20232;-81
2022/11/27 12:01:19;;;;;;;7.77;5.53;;;9.80;99.90;;;;;;8376584;28;20292;-80
2022/11/27 12:05:35;;;;;;;9.57;5.27;;;9.70;99.90;;;;;;8378336;28;20181;-80
2022/11/27 12:09:48;;;;;;;8.67;5.60;;;9.70;99.90;;;;;;8373057;28;20209;-80
2022/11/27 12:14:30;;;;;;;10.20;5.77;;;9.60;99.90;;;;;;8377805;28;20476;-80
2022/11/27 12:18:35;;;;;;;11.13;5.80;;;9.50;99.90;;;;;;8367564;28;20209;-80
2022/11/27 12:23:13;;;;;;;7.37;5.60;;;9.30;99.90;;;;;;8375408;28;20220;-79
2022/11/27 12:27:30;;;;;;;12.60;7.40;;;9.30;99.90;;;;;;8370943;28;20241;-80
2022/11/27 12:31:55;;;;;;;17.35;9.52;;;9.10;99.90;;;;;;8329819;28;1391161;-79
2022/11/27 12:36:05;;;;;;;19.03;9.67;;;9.00;99.90;;;;;;8376212;28;20185;-80
2022/11/27 12:40:25;;;;;;;20.67;9.23;;;8.80;99.90;;;;;;8367459;28;20245;-80
2022/11/27 12:44:51;;;;;;;18.67;9.13;;;8.70;99.90;;;;;;8369132;28;20206;-81
2022/11/27 12:49:09;;;;;;;15.27;9.70;;;8.70;99.90;;;;;;8378640;28;20183;-80
2022/11/27 12:53:22;;;;;;;20.30;11.43;;;8.70;99.90;;;;;;8377097;28;20382;-80
2022/11/27 12:57:35;;;;;;;16.53;9.27;;;8.60;99.90;;;;;;8368734;28;20380;-79
2022/11/27 13:01:42;;;;;;;15.97;9.90;;;8.60;99.90;;;;;;8374177;28;20274;-79
2022/11/27 13:05:59;;;;;;;14.60;8.70;;;8.70;99.90;;;;;;8370098;28;20194;-80
2022/11/27 13:10:25;;;;;;;17.10;10.77;;;8.70;99.90;;;;;;8372725;28;20188;-81
2022/11/27 13:14:27;;;;;;;17.13;10.33;;;8.70;99.90;;;;;;8377294;28;20200;-80
2022/11/27 13:18:43;;;;;;;19.67;10.70;;;8.60;99.90;;;;;;8361256;28;20295;-79
2022/11/27 13:22:45;;;;;;;17.00;11.27;;;8.50;99.90;;;;;;8370036;28;20413;-79
2022/11/27 13:26:59;;;;;;;18.43;11.77;;;8.40;99.90;;;;;;8367364;28;20204;-79
2022/11/27 13:31:02;;;;;;;19.47;11.47;;;8.40;99.90;;;;;;8373059;28;20209;-79
2022/11/27 13:35:06;;;;;;;18.43;12.63;;;8.40;99.90;;;;;;8369965;28;20195;-79
2022/11/27 13:39:22;;;;;;;20.53;14.23;;;8.50;99.90;;;;;;8373278;28;20242;-79
2022/11/27 13:43:28;;;;;;;18.93;12.40;;;8.60;99.90;;;;;;8363869;28;20191;-79
2022/11/27 13:47:36;;;;;;;18.10;10.80;;;8.60;99.90;;;;;;8371953;28;20272;-79
2022/11/27 13:51:38;;;;;;;29.47;17.13;;;8.50;99.90;;;;;;8370766;28;20191;-79
2022/11/27 13:55:52;;;;;;;29.90;19.33;;;8.40;99.90;;;;;;8376864;28;20191;-79
2022/11/27 13:59:58;;;;;;;27.13;17.53;;;8.20;99.90;;;;;;8368090;28;20221;-80
2022/11/27 14:04:08;;;;;;;21.47;12.50;;;8.10;99.90;;;;;;8375217;28;20186;-80
2022/11/27 14:08:32;;;;;;;19.70;13.83;;;8.10;99.90;;;;;;8370782;28;20209;-79
2022/11/27 14:12:35;;;;;;;22.10;14.63;;;8.10;99.90;;;;;;8355513;28;20197;-79
2022/11/27 14:16:37;;;;;;;25.17;16.73;;;8.00;99.90;;;;;;8370366;28;20192;-79
2022/11/27 14:21:00;;;;;;;45.17;28.67;;;7.90;99.90;;;;;;8367617;28;20213;-79
2022/11/27 14:25:01;;;;;;;46.10;29.00;;;7.80;99.90;;;;;;8365550;28;20181;-80
2022/11/27 14:29:02;;;;;;;52.00;31.33;;;7.80;99.90;;;;;;8372609;28;20235;-79
2022/11/27 14:33:04;;;;;;;46.37;28.90;;;7.70;99.90;;;;;;8368838;28;20189;-79
2022/11/27 14:37:05;;;;;;;38.23;24.03;;;7.70;99.90;;;;;;8374576;28;20185;-79
2022/11/27 14:41:18;;;;;;;51.23;32.03;;;7.60;99.90;;;;;;8371973;28;20205;-80
2022/11/27 14:45:21;;;;;;;129.20;60.97;;;7.50;99.90;;;;;;8373741;28;20245;-79
2022/11/27 14:49:26;;;;;;;108.60;56.47;;;7.40;99.90;;;;;;8369475;28;20185;-79
2022/11/27 14:53:28;;;;;;;79.47;44.17;;;7.30;99.90;;;;;;8363895;28;20182;-79
2022/11/27 14:57:30;;;;;;;47.77;29.93;;;7.10;99.90;;;;;;8375318;28;20210;-79
2022/11/27 15:01:33;;;;;;;103.33;49.17;;;7.00;99.90;;;;;;8368472;28;20182;-80
2022/11/27 15:05:38;;;;;;;105.17;49.10;;;6.90;99.90;;;;;;8374807;28;20188;-79
2022/11/27 15:09:44;;;;;;;96.80;48.70;;;6.80;99.90;;;;;;8373608;28;20209;-79
2022/11/27 15:13:52;;;;;;;83.20;42.00;;;6.70;99.90;;;;;;8371035;28;20185;-80
2022/11/27 15:17:58;;;;;;;57.33;31.40;;;6.60;99.90;;;;;;8374906;28;20304;-80
2022/11/27 15:21:59;;;;;;;31.00;19.23;;;6.50;99.90;;;;;;8367135;28;20192;-79
2022/11/27 15:26:04;;;;;;;19.47;14.07;;;6.40;99.90;;;;;;8376471;28;20272;-80
2022/11/27 15:30:11;;;;;;;23.43;15.00;;;6.30;99.90;;;;;;8379784;28;20197;-79
2022/11/27 15:34:15;;;;;;;28.63;18.20;;;6.20;99.90;;;;;;8378844;28;20177;-79
2022/11/27 15:38:17;;;;;;;36.20;23.30;;;6.20;99.90;;;;;;8368838;28;20210;-79
2022/11/27 15:42:19;;;;;;;39.10;23.13;;;6.20;99.90;;;;;;8368908;28;20408;-79
2022/11/27 15:46:31;;;;;;;39.30;24.93;;;6.10;99.90;;;;;;8381421;28;20193;-79
2022/11/27 15:50:31;;;;;;;44.77;27.03;;;6.00;99.90;;;;;;8381613;28;20216;-79
2022/11/27 15:54:32;;;;;;;56.00;31.03;;;6.00;99.90;;;;;;8371787;28;20394;-79
2022/11/27 15:58:33;;;;;;;46.97;25.97;;;6.00;99.90;;;;;;8372524;28;20217;-81
2022/11/27 16:02:35;;;;;;;35.87;21.80;;;5.90;99.90;;;;;;8371791;28;20189;-79
2022/11/27 16:06:37;;;;;;;39.27;22.23;;;5.80;99.90;;;;;;8373026;28;20173;-79
2022/11/27 16:10:41;;;;;;;32.00;20.17;;;5.70;99.90;;;;;;8376972;28;20186;-80
2022/11/27 16:14:42;;;;;;;31.70;20.63;;;5.50;99.90;;;;;;8372871;28;20185;-80
2022/11/27 16:18:43;;;;;;;25.00;16.90;;;5.30;99.90;;;;;;8376294;28;20209;-79
2022/11/27 16:22:44;;;;;;;25.30;16.83;;;5.10;99.90;;;;;;8369459;28;20213;-80
2022/11/27 16:26:45;;;;;;;30.93;16.93;;;5.00;99.90;;;;;;8374047;28;20187;-80
2022/11/27 16:30:46;;;;;;;29.07;15.90;;;4.80;99.90;;;;;;8374818;28;20205;-80
2022/11/27 16:34:49;;;;;;;29.97;17.63;;;4.70;99.90;;;;;;8372917;28;20520;-80
2022/11/27 16:38:53;;;;;;;30.47;19.37;;;4.70;99.90;;;;;;8378544;28;20297;-80
2022/11/27 16:42:54;;;;;;;27.83;18.37;;;4.70;99.90;;;;;;8374660;28;20194;-80
2022/11/27 16:46:55;;;;;;;28.30;17.80;;;4.70;99.90;;;;;;8373843;28;20190;-80
2022/11/27 16:51:10;;;;;;;31.80;18.07;;;4.70;99.90;;;;;;8370869;28;20187;-81
2022/11/27 16:55:11;;;;;;;30.23;17.77;;;4.80;99.90;;;;;;8376368;28;20193;-80
2022/11/27 16:59:13;;;;;;;35.20;19.47;;;4.90;99.90;;;;;;8370828;28;20227;-80
2022/11/27 17:03:15;;;;;;;33.33;18.60;;;5.00;99.90;;;;;;8374071;28;20188;-80
2022/11/27 17:07:16;;;;;;;35.43;19.73;;;5.10;99.90;;;;;;8371482;28;20186;-79
2022/11/27 17:11:20;;;;;;;36.60;20.00;;;5.10;99.90;;;;;;8367613;28;20286;-79
2022/11/27 17:15:21;;;;;;;40.00;22.47;;;5.20;99.90;;;;;;8371397;28;20223;-79
2022/11/27 17:19:22;;;;;;;44.90;24.63;;;5.20;99.90;;;;;;8368392;28;20202;-79
2022/11/27 17:23:23;;;;;;;39.43;22.03;;;5.30;99.90;;;;;;8369621;28;20206;-79
2022/11/27 17:27:24;;;;;;;34.37;19.90;;;5.30;99.90;;;;;;8367866;28;20185;-79
2022/11/27 17:31:27;;;;;;;32.47;18.97;;;5.30;99.90;;;;;;8374652;28;20202;-79
2022/11/27 17:35:29;;;;;;;30.83;19.33;;;5.30;99.90;;;;;;8373377;28;20182;-80
2022/11/27 17:39:30;;;;;;;23.10;15.47;;;5.20;99.90;;;;;;8351264;28;20213;-79
2022/11/27 17:43:31;;;;;;;35.57;18.80;;;5.20;99.90;;;;;;8367919;28;20246;-80
2022/11/27 17:47:32;;;;;;;29.30;17.73;;;5.20;99.90;;;;;;8368823;28;20235;-79
2022/11/27 17:51:35;;;;;;;29.90;18.50;;;5.20;99.90;;;;;;8366313;28;20190;-79
2022/11/27 17:55:36;;;;;;;32.00;18.23;;;5.20;99.90;;;;;;8374317;28;20188;-79
2022/11/27 17:59:36;;;;;;;33.17;20.50;;;5.20;99.90;;;;;;8369651;28;20220;-79
2022/11/27 18:03:37;;;;;;;31.43;18.37;;;5.20;99.90;;;;;;8369027;28;20182;-80
2022/11/27 18:07:38;;;;;;;30.90;19.63;;;5.10;99.90;;;;;;8365625;28;20283;-80
2022/11/27 18:11:39;;;;;;;31.87;20.37;;;5.10;99.90;;;;;;8365642;28;20217;-80
2022/11/27 18:15:42;;;;;;;31.53;20.17;;;5.10;99.90;;;;;;8378025;28;20189;-80
2022/11/27 18:19:43;;;;;;;33.37;19.87;;;5.10;99.90;;;;;;8371243;28;20208;-80
2022/11/27 18:23:46;;;;;;;32.53;19.37;;;5.10;99.90;;;;;;8374718;28;20283;-80
2022/11/27 18:27:47;;;;;;;37.83;20.90;;;5.00;99.90;;;;;;8374945;28;20535;-80
2022/11/27 18:31:49;;;;;;;38.50;21.37;;;5.00;99.90;;;;;;8370856;28;20443;-80
2022/11/27 18:35:52;;;;;;;34.57;20.00;;;5.00;99.90;;;;;;8373225;28;20197;-80
2022/11/27 18:39:53;;;;;;;36.03;20.37;;;4.90;99.90;;;;;;8372094;28;20243;-80
2022/11/27 18:43:54;;;;;;;33.63;20.57;;;4.90;99.90;;;;;;8370734;28;20197;-80
2022/11/27 18:47:55;;;;;;;36.03;21.00;;;4.80;99.90;;;;;;8347628;28;20275;-79
2022/11/27 18:51:55;;;;;;;37.23;21.03;;;4.70;99.90;;;;;;8372781;28;20241;-79
2022/11/27 18:56:03;;;;;;;45.97;23.97;;;4.60;99.90;;;;;;8364708;28;20188;-79
2022/11/27 19:00:05;;;;;;;37.90;21.17;;;4.50;99.90;;;;;;8382463;28;20289;-81
2022/11/27 19:04:07;;;;;;;32.07;20.33;;;4.50;99.90;;;;;;8375238;28;20185;-80
2022/11/27 19:08:09;;;;;;;38.73;22.80;;;4.50;99.90;;;;;;8375146;28;20193;-80
2022/11/27 19:12:11;;;;;;;31.43;20.13;;;4.60;99.90;;;;;;8378332;28;20254;-80
2022/11/27 19:16:21;;;;;;;29.47;18.10;;;4.60;99.90;;;;;;8383435;28;20202;-80
2022/11/27 19:20:23;;;;;;;35.47;21.27;;;4.60;99.90;;;;;;8366166;28;20220;-80
2022/11/27 19:24:24;;;;;;;33.10;20.10;;;4.50;99.90;;;;;;8381819;28;20182;-80
2022/11/27 19:28:24;;;;;;;35.93;21.23;;;4.50;99.90;;;;;;8380115;28;20212;-80
2022/11/27 19:32:25;;;;;;;35.33;19.97;;;4.50;99.90;;;;;;8377130;28;20194;-80
2022/11/27 19:36:28;;;;;;;40.47;21.27;;;4.30;99.90;;;;;;8373190;28;20196;-80
2022/11/27 19:40:30;;;;;;;30.87;19.53;;;4.30;99.90;;;;;;8356501;28;20213;-80
2022/11/27 19:44:31;;;;;;;38.87;22.20;;;4.20;99.90;;;;;;8357554;28;20251;-80
2022/11/27 19:48:32;;;;;;;36.43;21.63;;;4.10;99.90;;;;;;8373408;28;20272;-81
2022/11/27 19:52:34;;;;;;;40.17;21.80;;;4.00;99.90;;;;;;8373471;28;20188;-79
2022/11/27 19:56:37;;;;;;;41.67;22.47;;;3.80;99.90;;;;;;8374236;28;20304;-79
2022/11/27 20:00:38;;;;;;;36.93;20.63;;;3.70;99.90;;;;;;8372408;28;20225;-78
2022/11/27 20:04:39;;;;;;;31.17;19.90;;;3.60;99.90;;;;;;8375218;28;20287;-79
2022/11/27 20:08:41;;;;;;;37.00;20.40;;;3.50;99.90;;;;;;8379207;28;20278;-79
2022/11/27 20:12:42;;;;;;;32.83;20.17;;;3.40;99.90;;;;;;8377051;28;20331;-79
2022/11/27 20:16:43;;;;;;;34.63;20.07;;;3.30;99.90;;;;;;8372245;28;20212;-79
2022/11/27 20:20:45;;;;;;;33.90;20.40;;;3.20;99.90;;;;;;8370256;28;20209;-79
2022/11/27 20:24:46;;;;;;;35.93;19.67;;;3.00;99.90;;;;;;8369433;28;20186;-80
2022/11/27 20:28:47;;;;;;;37.53;21.07;;;2.90;99.90;;;;;;8368923;28;20243;-81
2022/11/27 20:32:48;;;;;;;39.90;20.23;;;2.80;99.90;;;;;;8358475;28;20585;-80
2022/11/27 20:36:49;;;;;;;37.13;20.53;;;2.80;99.90;;;;;;8368389;28;20185;-80
2022/11/27 20:40:51;;;;;;;36.67;22.43;;;2.70;99.90;;;;;;8377522;28;20213;-78
2022/11/27 20:44:52;;;;;;;39.57;23.00;;;2.80;99.90;;;;;;8375443;28;20181;-78
2022/11/27 20:48:53;;;;;;;41.77;22.30;;;2.80;99.90;;;;;;8370449;28;20200;-78
2022/11/27 20:52:54;;;;;;;41.33;22.77;;;2.70;99.90;;;;;;8369769;28;20217;-79
2022/11/27 20:56:55;;;;;;;37.40;21.07;;;2.70;99.90;;;;;;8370078;28;20214;-79
2022/11/27 21:00:58;;;;;;;39.20;22.30;;;2.50;99.90;;;;;;8371976;28;20239;-80
2022/11/27 21:04:59;;;;;;;37.50;20.57;;;2.40;99.90;;;;;;8368006;28;20173;-79